createdAt,value
2022-09-21T00:01:33.066Z,7.00
2022-09-21T00:04:04.222Z,8.00
2022-09-21T00:06:35.100Z,8.00
2022-09-21T00:09:08.325Z,11.00
2022-09-21T00:11:38.268Z,9.20
2022-09-21T00:14:14.455Z,8.00
2022-09-21T00:16:43.846Z,8.00
2022-09-21T00:19:12.209Z,8.00
2022-09-21T00:21:40.861Z,5.75
2022-09-21T00:24:09.533Z,10.00
2022-09-21T00:26:37.293Z,5.00
2022-09-21T00:29:06.149Z,9.00
2022-09-21T00:31:34.987Z,8.00
2022-09-21T00:34:03.814Z,5.50
2022-09-21T00:36:31.614Z,5.00
2022-09-21T00:39:02.203Z,5.00
2022-09-21T00:41:33.710Z,4.50
2022-09-21T00:44:22.205Z,4.00
2022-09-21T00:46:53.510Z,5.50
2022-09-21T00:49:23.319Z,7.75
2022-09-21T00:51:53.359Z,7.00
2022-09-21T00:54:35.591Z,5.00
2022-09-21T00:57:04.736Z,5.00
2022-09-21T00:59:35.963Z,7.00
2022-09-21T01:02:04.518Z,5.00
2022-09-21T01:04:33.751Z,5.75
2022-09-21T01:07:12.450Z,6.00
2022-09-21T01:09:45.118Z,5.00
2022-09-21T01:12:45.519Z,6.00
2022-09-21T01:15:51.951Z,8.75
2022-09-21T01:18:59.855Z,6.75
2022-09-21T01:21:35.239Z,7.00
2022-09-21T01:25:13.586Z,9.00
2022-09-21T01:28:16.183Z,6.00
2022-09-21T01:30:49.046Z,8.00
2022-09-21T01:33:53.038Z,4.20
2022-09-21T01:36:27.972Z,11.00
2022-09-21T01:39:08.890Z,8.00
2022-09-21T01:41:41.315Z,7.50
2022-09-21T01:44:21.270Z,5.00
2022-09-21T01:46:50.131Z,7.50
2022-09-21T01:49:28.150Z,5.00
2022-09-21T01:52:30.111Z,5.50
2022-09-21T01:55:35.268Z,5.00
2022-09-21T01:58:33.363Z,8.00
2022-09-21T02:01:01.883Z,7.00
2022-09-21T02:04:04.791Z,5.00
2022-09-21T02:06:32.879Z,8.00
2022-09-21T02:09:00.628Z,6.00
2022-09-21T02:11:28.246Z,5.50
2022-09-21T02:13:56.509Z,8.00
2022-09-21T02:16:50.566Z,4.50
2022-09-21T02:19:31.866Z,7.00
2022-09-21T02:22:33.417Z,8.00
2022-09-21T02:25:47.521Z,5.25
2022-09-21T02:28:21.038Z,9.00
2022-09-21T02:31:06.079Z,6.00
2022-09-21T02:34:26.078Z,5.00
2022-09-21T02:37:36.874Z,10.00
2022-09-21T02:40:34.372Z,9.00
2022-09-21T02:43:21.307Z,4.00
2022-09-21T02:45:59.042Z,8.00
2022-09-21T02:48:51.934Z,3.00
2022-09-21T02:51:36.180Z,6.67
2022-09-21T02:54:09.074Z,5.00
2022-09-21T02:56:38.185Z,6.00
2022-09-21T02:59:08.322Z,5.00
2022-09-21T03:01:36.555Z,6.00
2022-09-21T03:04:06.069Z,8.80
2022-09-21T03:06:34.258Z,6.50
2022-09-21T03:09:02.282Z,8.00
2022-09-21T03:11:30.209Z,5.50
2022-09-21T03:13:57.914Z,6.00
2022-09-21T03:16:25.639Z,5.00
2022-09-21T03:18:53.343Z,7.00
2022-09-21T03:21:22.171Z,5.00
2022-09-21T03:23:49.818Z,4.00
2022-09-21T03:26:17.509Z,9.00
2022-09-21T03:28:46.112Z,3.75
2022-09-21T03:31:13.762Z,5.00
2022-09-21T03:33:41.392Z,5.50
2022-09-21T03:36:11.710Z,7.60
2022-09-21T03:38:39.905Z,8.00
2022-09-21T03:41:07.869Z,7.00
2022-09-21T03:43:35.583Z,8.00
2022-09-21T03:46:03.237Z,9.00
2022-09-21T03:48:31.240Z,11.00
2022-09-21T03:50:59.114Z,12.50
2022-09-21T03:53:26.737Z,7.50
2022-09-21T03:55:54.370Z,7.00
2022-09-21T03:58:22.846Z,7.75
2022-09-21T04:00:50.567Z,7.00
2022-09-21T04:03:18.187Z,8.50
2022-09-21T04:05:45.785Z,12.00
2022-09-21T04:08:15.262Z,13.20
2022-09-21T04:10:43.421Z,10.00
2022-09-21T04:13:11.517Z,5.00
2022-09-21T04:15:39.313Z,11.00
2022-09-21T04:18:07.801Z,11.00
2022-09-21T04:20:37.297Z,9.60
2022-09-21T04:23:04.957Z,9.00
2022-09-21T04:25:34.605Z,42.67
2022-09-21T04:28:03.511Z,30.33
2022-09-21T04:30:37.753Z,20.50
2022-09-21T04:33:06.181Z,19.50
2022-09-21T04:35:34.670Z,15.67
2022-09-21T04:38:02.546Z,12.00
2022-09-21T04:40:32.468Z,14.00
2022-09-21T04:43:00.194Z,14.50
2022-09-21T04:45:30.000Z,11.00
2022-09-21T04:47:59.473Z,12.00
2022-09-21T04:50:27.173Z,15.00
2022-09-21T04:52:54.767Z,11.00
2022-09-21T04:55:22.784Z,11.50
2022-09-21T04:57:51.259Z,17.67
2022-09-21T05:00:19.794Z,13.00
2022-09-21T05:02:47.453Z,12.00
2022-09-21T05:05:15.263Z,12.00
2022-09-21T05:07:42.909Z,11.00
2022-09-21T05:10:12.107Z,10.00
2022-09-21T05:12:41.187Z,10.00
2022-09-21T05:15:13.535Z,8.00
2022-09-21T05:17:43.080Z,10.60
2022-09-21T05:20:12.654Z,13.33
2022-09-21T05:22:40.300Z,16.00
2022-09-21T05:25:09.546Z,13.50
2022-09-21T05:27:37.373Z,14.50
2022-09-21T05:30:08.446Z,11.40
2022-09-21T05:32:58.148Z,12.50
2022-09-21T05:35:36.383Z,12.00
2022-09-21T05:38:20.293Z,11.00
2022-09-21T05:40:53.254Z,11.80
2022-09-21T05:43:22.549Z,30.00
2022-09-21T05:46:34.278Z,13.00
2022-09-21T05:49:33.576Z,13.00
2022-09-21T05:52:59.364Z,13.33
2022-09-21T05:55:56.792Z,12.00
2022-09-21T05:58:59.563Z,14.00
2022-09-21T06:01:58.988Z,10.00
2022-09-21T06:04:28.061Z,13.00
2022-09-21T06:06:55.731Z,12.50
2022-09-21T06:09:25.985Z,16.00
2022-09-21T06:11:55.471Z,13.20
2022-09-21T06:14:25.758Z,12.00
2022-09-21T06:16:56.286Z,14.33
2022-09-21T06:19:24.874Z,13.67
2022-09-21T06:21:52.517Z,10.00
2022-09-21T06:24:22.950Z,12.33
2022-09-21T06:26:51.823Z,10.50
2022-09-21T06:29:23.691Z,12.33
2022-09-21T06:31:52.452Z,12.00
2022-09-21T06:34:20.149Z,23.50
2022-09-21T06:36:48.725Z,17.50
2022-09-21T06:39:17.238Z,16.00
2022-09-21T06:41:45.842Z,19.00
2022-09-21T06:44:13.489Z,13.00
2022-09-21T06:46:42.978Z,12.00
2022-09-21T06:49:12.494Z,12.00
2022-09-21T06:51:40.164Z,8.50
2022-09-21T06:54:08.899Z,17.33
2022-09-21T06:56:37.599Z,13.33
2022-09-21T06:59:08.446Z,13.80
2022-09-21T07:01:36.586Z,11.50
2022-09-21T07:04:07.099Z,11.67
2022-09-21T07:06:34.903Z,8.00
2022-09-21T07:11:52.053Z,11.00
2022-09-21T07:14:22.637Z,9.50
2022-09-21T07:16:53.693Z,10.60
2022-09-21T07:19:21.377Z,10.00
2022-09-21T07:21:49.026Z,9.50
2022-09-21T07:24:16.797Z,9.00
2022-09-21T07:26:44.598Z,8.00
2022-09-21T07:29:16.048Z,6.00
2022-09-21T07:31:46.517Z,6.00
2022-09-21T07:34:14.437Z,7.50
2022-09-21T07:36:42.348Z,6.00
2022-09-21T07:39:10.934Z,5.00
2022-09-21T07:41:39.161Z,5.00
2022-09-21T07:44:06.895Z,6.00
2022-09-21T07:46:37.208Z,7.00
2022-09-21T07:49:06.204Z,7.00
2022-09-21T07:51:33.822Z,5.00
2022-09-21T07:54:01.466Z,5.00
2022-09-21T07:56:29.904Z,11.67
2022-09-21T07:59:06.618Z,7.50
2022-09-21T08:01:42.705Z,10.00
2022-09-21T08:04:12.417Z,10.00
2022-09-21T08:06:42.048Z,9.20
2022-09-21T08:09:16.774Z,5.57
2022-09-21T08:11:47.901Z,6.14
2022-09-21T08:14:23.780Z,7.00
2022-09-21T08:16:55.775Z,5.60
2022-09-21T08:19:26.041Z,6.00
2022-09-21T08:21:57.938Z,8.80
2022-09-21T08:24:27.012Z,16.33
2022-09-21T08:26:57.939Z,6.80
2022-09-21T08:29:29.928Z,5.43
2022-09-21T08:31:59.458Z,4.80
2022-09-21T08:34:28.128Z,6.00
2022-09-21T08:36:56.047Z,6.00
2022-09-21T08:39:25.657Z,8.00
2022-09-21T08:42:39.793Z,7.40
2022-09-21T08:45:17.841Z,7.00
2022-09-21T08:47:51.061Z,4.00
2022-09-21T08:50:35.904Z,4.00
2022-09-21T08:53:15.657Z,4.00
2022-09-21T08:55:43.537Z,5.00
2022-09-21T08:58:26.841Z,4.50
2022-09-21T09:01:22.678Z,4.00
2022-09-21T09:04:43.084Z,4.00
2022-09-21T09:07:57.297Z,4.14
2022-09-21T09:10:54.921Z,4.00
2022-09-21T09:14:15.718Z,4.00
2022-09-21T09:17:26.824Z,4.80
2022-09-21T09:20:31.542Z,5.50
2022-09-21T09:23:23.198Z,5.00
2022-09-21T09:25:56.758Z,5.00
2022-09-21T09:28:36.027Z,7.00
2022-09-21T09:31:32.374Z,4.00
2022-09-21T09:34:33.014Z,3.00
2022-09-21T09:37:17.667Z,4.50
2022-09-21T09:39:56.196Z,5.00
2022-09-21T09:43:04.864Z,7.00
2022-09-21T09:46:29.795Z,3.50
2022-09-21T09:49:24.714Z,5.50
2022-09-21T09:51:52.571Z,4.00
2022-09-21T09:54:26.726Z,4.00
2022-09-21T09:56:55.247Z,6.50
2022-09-21T09:59:54.631Z,6.50
2022-09-21T10:02:27.250Z,5.00
2022-09-21T10:05:09.007Z,5.50
2022-09-21T10:07:40.826Z,4.00
2022-09-21T10:10:33.763Z,4.00
2022-09-21T10:13:34.400Z,4.00
2022-09-21T10:16:12.234Z,5.00
2022-09-21T10:18:51.613Z,5.00
2022-09-21T10:21:33.724Z,3.50
2022-09-21T10:24:24.817Z,4.00
2022-09-21T10:27:12.504Z,6.00
2022-09-21T10:29:49.770Z,4.00
2022-09-21T10:32:23.679Z,4.00
2022-09-21T10:35:20.954Z,4.50
2022-09-21T10:37:54.534Z,5.00
2022-09-21T10:40:22.282Z,3.50
2022-09-21T10:42:56.163Z,5.00
2022-09-21T10:45:37.257Z,4.00
2022-09-21T10:48:18.154Z,4.00
2022-09-21T10:50:52.110Z,4.00
2022-09-21T10:53:34.413Z,5.00
2022-09-21T10:56:17.576Z,4.00
2022-09-21T10:59:30.754Z,6.60
2022-09-21T11:02:01.660Z,4.00
2022-09-21T11:04:46.568Z,7.00
2022-09-21T11:07:35.657Z,4.00
2022-09-21T11:10:21.973Z,3.67
2022-09-21T11:13:25.889Z,4.40
2022-09-21T11:16:26.510Z,5.00
2022-09-21T11:19:32.514Z,4.00
2022-09-21T11:22:40.954Z,4.00
2022-09-21T11:25:50.686Z,4.50
2022-09-21T11:29:09.164Z,2.00
2022-09-21T11:32:28.248Z,1.00
2022-09-21T11:35:38.937Z,3.00
2022-09-21T11:38:39.870Z,3.20
2022-09-21T11:41:46.267Z,3.00
2022-09-21T11:44:58.439Z,3.60
2022-09-21T11:47:58.689Z,5.50
2022-09-21T11:50:45.262Z,10.00
2022-09-21T11:53:52.170Z,4.00
2022-09-21T11:56:55.335Z,4.00
2022-09-21T11:59:40.818Z,4.00
2022-09-21T12:02:52.443Z,4.00
2022-09-21T12:06:06.711Z,5.00
2022-09-21T12:09:23.781Z,5.00
2022-09-21T12:12:13.152Z,6.00
2022-09-21T12:15:18.784Z,5.50
2022-09-21T12:18:29.398Z,5.00
2022-09-21T12:21:32.008Z,6.00
2022-09-21T12:24:22.285Z,5.50
2022-09-21T12:27:01.512Z,4.00
2022-09-21T12:29:49.902Z,4.50
2022-09-21T12:33:25.598Z,3.50
2022-09-21T12:36:17.652Z,1.00
2022-09-21T12:38:49.959Z,3.00
2022-09-21T12:41:40.021Z,3.00
2022-09-21T12:44:52.227Z,4.00
2022-09-21T12:47:58.324Z,2.00
2022-09-21T12:50:52.349Z,2.00
2022-09-21T12:53:27.411Z,3.00
2022-09-21T12:56:58.743Z,2.00
2022-09-21T12:59:43.709Z,2.00
2022-09-21T13:02:33.449Z,3.00
2022-09-21T13:05:27.739Z,2.00
2022-09-21T13:08:26.526Z,1.00
2022-09-21T13:11:08.176Z,2.00
2022-09-21T13:13:53.016Z,3.00
2022-09-21T13:16:39.065Z,7.00
2022-09-21T13:19:30.221Z,6.00
2022-09-21T13:22:33.805Z,3.50
2022-09-21T13:25:25.949Z,2.00
2022-09-21T13:28:14.396Z,4.00
2022-09-21T13:30:44.393Z,2.00
2022-09-21T13:33:20.501Z,2.00
2022-09-21T13:35:53.041Z,1.00
2022-09-21T13:38:41.486Z,1.00
2022-09-21T13:41:18.708Z,19.00
2022-09-21T13:44:01.320Z,2.00
2022-09-21T13:46:35.791Z,2.00
2022-09-21T13:49:14.035Z,3.00
2022-09-21T13:52:15.762Z,2.00
2022-09-21T13:54:56.781Z,3.00
2022-09-21T13:57:49.158Z,1.00
2022-09-21T14:00:20.219Z,2.00
2022-09-21T14:02:51.620Z,3.67
2022-09-21T14:05:35.099Z,2.00
2022-09-21T14:08:23.688Z,2.00
2022-09-21T14:11:37.792Z,2.00
2022-09-21T14:14:28.379Z,1.00
2022-09-21T14:17:02.314Z,2.00
2022-09-21T14:19:32.088Z,10.00
2022-09-21T14:22:06.426Z,6.00
2022-09-21T14:24:39.163Z,3.50
2022-09-21T14:27:45.439Z,1.00
2022-09-21T14:30:25.689Z,4.50
2022-09-21T14:33:54.458Z,1.00
2022-09-21T14:36:51.015Z,3.00
2022-09-21T14:39:37.795Z,8.00
2022-09-21T14:42:19.714Z,5.00
2022-09-21T14:44:51.993Z,4.71
2022-09-21T14:47:25.549Z,4.00
2022-09-21T14:50:19.295Z,5.00
2022-09-21T14:53:35.759Z,6.00
2022-09-21T14:56:39.107Z,5.50
2022-09-21T14:59:25.728Z,4.00
2022-09-21T15:02:35.654Z,5.00
2022-09-21T15:05:19.202Z,10.50
2022-09-21T15:08:41.621Z,13.50
2022-09-21T15:11:30.511Z,26.67
2022-09-21T15:14:47.044Z,44.33
2022-09-21T15:17:30.156Z,13.50
2022-09-21T15:20:23.669Z,6.00
2022-09-21T15:22:59.332Z,13.00
2022-09-21T15:25:32.857Z,17.67
2022-09-21T15:28:04.268Z,26.33
2022-09-21T15:30:33.380Z,30.33
2022-09-21T15:33:03.922Z,46.00
2022-09-21T15:35:34.372Z,34.33
2022-09-21T15:38:02.923Z,25.67
2022-09-21T15:40:47.637Z,99.25
2022-09-21T15:43:21.534Z,78.50
2022-09-21T15:45:54.134Z,71.67
2022-09-21T15:48:36.663Z,162.38
2022-09-21T15:51:33.795Z,76.33
2022-09-21T15:55:07.305Z,62.33
2022-09-21T15:57:43.088Z,46.67
2022-09-21T16:00:20.789Z,23.50
2022-09-21T16:03:26.116Z,14.50
2022-09-21T16:05:57.132Z,13.00
2022-09-21T16:08:36.665Z,9.00
2022-09-21T16:11:27.451Z,10.00
2022-09-21T16:14:30.845Z,9.67
2022-09-21T16:17:17.521Z,20.67
2022-09-21T16:20:19.956Z,38.67
2022-09-21T16:22:54.984Z,50.67
2022-09-21T16:25:38.402Z,36.67
2022-09-21T16:28:18.766Z,28.67
2022-09-21T16:30:53.358Z,21.50
2022-09-21T16:33:49.139Z,30.67
2022-09-21T16:36:22.291Z,34.00
2022-09-21T16:38:52.958Z,30.00
2022-09-21T16:41:36.458Z,56.33
2022-09-21T16:44:05.375Z,59.00
2022-09-21T16:46:35.522Z,62.67
2022-09-21T16:49:05.003Z,59.67
2022-09-21T16:51:32.720Z,80.00
2022-09-21T16:54:03.121Z,97.75
2022-09-21T16:56:32.712Z,98.00
2022-09-21T16:59:03.886Z,91.00
2022-09-21T17:01:31.737Z,103.50
2022-09-21T17:04:01.681Z,91.33
2022-09-21T17:06:31.063Z,70.33
2022-09-21T17:09:01.012Z,75.67
2022-09-21T17:11:29.909Z,71.33
2022-09-21T17:14:01.439Z,80.00
2022-09-21T17:16:30.134Z,63.33
2022-09-21T17:18:59.600Z,70.00
2022-09-21T17:21:29.086Z,63.00
2022-09-21T17:23:58.688Z,54.33
2022-09-21T17:26:28.230Z,49.33
2022-09-21T17:28:56.805Z,31.33
2022-09-21T17:31:28.279Z,18.00
2022-09-21T17:33:57.321Z,14.33
2022-09-21T17:36:25.837Z,16.00
2022-09-21T17:38:57.122Z,20.00
2022-09-21T17:41:46.096Z,28.33
2022-09-21T17:44:46.192Z,22.00
2022-09-21T17:47:28.355Z,18.50
2022-09-21T17:50:28.001Z,17.00
2022-09-21T17:53:17.425Z,81.67
2022-09-21T17:55:58.182Z,22.00
2022-09-21T17:58:48.663Z,8.50
2022-09-21T18:01:40.029Z,27.50
2022-09-21T18:04:11.175Z,34.33
2022-09-21T18:06:39.667Z,14.50
2022-09-21T18:09:07.964Z,13.50
2022-09-21T18:12:39.625Z,14.67
2022-09-21T18:15:34.743Z,14.00
2022-09-21T18:18:22.597Z,21.33
2022-09-21T18:21:05.547Z,71.75
2022-09-21T18:23:50.192Z,47.50
2022-09-21T18:26:20.702Z,45.00
2022-09-21T18:28:57.177Z,29.67
2022-09-21T18:32:03.478Z,25.67
2022-09-21T18:35:14.148Z,25.00
2022-09-21T18:38:36.657Z,21.00
2022-09-21T18:42:09.284Z,35.67
2022-09-21T18:44:51.002Z,21.00
2022-09-21T18:47:32.864Z,21.00
2022-09-21T18:50:33.583Z,12.00
2022-09-21T18:53:56.214Z,14.00
2022-09-21T18:56:35.250Z,11.40
2022-09-21T18:59:07.272Z,12.75
2022-09-21T19:01:35.618Z,13.50
2022-09-21T19:04:04.305Z,17.00
2022-09-21T19:07:02.707Z,21.00
2022-09-21T19:10:15.624Z,22.00
2022-09-21T19:13:09.512Z,14.67
2022-09-21T19:16:32.076Z,19.00
2022-09-21T19:20:04.411Z,19.00
2022-09-21T19:23:23.209Z,16.67
2022-09-21T19:26:50.170Z,16.00
2022-09-21T19:30:06.296Z,20.00
2022-09-21T19:32:53.277Z,16.00
2022-09-21T19:35:28.535Z,23.00
2022-09-21T19:38:02.976Z,18.00
2022-09-21T19:40:38.870Z,18.00
2022-09-21T19:43:41.740Z,20.67
2022-09-21T19:46:39.169Z,20.00
2022-09-21T19:49:19.879Z,15.67
2022-09-21T19:51:56.025Z,14.00
2022-09-21T19:54:55.292Z,14.00
2022-09-21T19:57:43.871Z,13.80
2022-09-21T20:00:18.053Z,16.00
2022-09-21T20:03:11.202Z,23.50
2022-09-21T20:06:19.785Z,21.00
2022-09-21T20:09:24.867Z,22.00
2022-09-21T20:12:24.377Z,13.67
2022-09-21T20:15:15.997Z,22.50
2022-09-21T20:18:39.532Z,17.00
2022-09-21T20:21:19.264Z,21.67
2022-09-21T20:23:52.013Z,21.50
2022-09-21T20:26:28.817Z,18.00
2022-09-21T20:28:58.246Z,25.00
2022-09-21T20:31:27.278Z,24.00
2022-09-21T20:33:55.860Z,29.50
2022-09-21T20:36:24.533Z,24.00
2022-09-21T20:38:52.234Z,24.00
2022-09-21T20:41:22.353Z,20.00
2022-09-21T20:43:50.947Z,16.33
2022-09-21T20:46:18.874Z,17.00
2022-09-21T20:48:47.401Z,22.00
2022-09-21T20:51:15.050Z,21.50
2022-09-21T20:53:45.425Z,16.67
2022-09-21T20:56:14.015Z,21.33
2022-09-21T20:58:41.661Z,14.00
2022-09-21T21:01:10.864Z,11.50
2022-09-21T21:03:40.421Z,11.60
2022-09-21T21:06:18.785Z,10.50
2022-09-21T21:08:47.468Z,10.00
2022-09-21T21:11:15.107Z,10.00
2022-09-21T21:13:44.766Z,10.40
2022-09-21T21:16:12.728Z,14.00
2022-09-21T21:18:41.689Z,10.00
2022-09-21T21:21:09.894Z,12.00
2022-09-21T21:23:56.273Z,15.50
2022-09-21T21:26:38.481Z,13.67
2022-09-21T21:29:13.455Z,17.00
2022-09-21T21:31:41.604Z,21.50
2022-09-21T21:34:10.307Z,29.00
2022-09-21T21:36:40.356Z,31.67
2022-09-21T21:39:10.854Z,34.00
2022-09-21T21:41:43.255Z,40.00
2022-09-21T21:44:13.001Z,38.67
2022-09-21T21:46:41.866Z,38.67
2022-09-21T21:49:11.402Z,55.00
2022-09-21T21:51:40.875Z,56.33
2022-09-21T21:54:09.493Z,35.50
2022-09-21T21:56:38.101Z,30.50
2022-09-21T21:59:06.849Z,18.00
2022-09-21T22:01:35.509Z,22.00
2022-09-21T22:04:04.178Z,14.00
2022-09-21T22:06:35.814Z,17.00
2022-09-21T22:09:07.893Z,15.67
2022-09-21T22:11:36.804Z,14.00
2022-09-21T22:14:08.350Z,15.00
2022-09-21T22:16:40.561Z,10.00
2022-09-21T22:19:09.625Z,11.00
2022-09-21T22:21:48.174Z,12.00
2022-09-21T22:24:18.205Z,22.00
2022-09-21T22:26:48.577Z,18.00
2022-09-21T22:29:17.488Z,19.50
2022-09-21T22:31:49.737Z,13.00
2022-09-21T22:34:20.730Z,7.60
2022-09-21T22:36:50.819Z,9.20
2022-09-21T22:39:20.382Z,8.60
2022-09-21T22:41:48.093Z,10.00
2022-09-21T22:44:18.749Z,10.00
2022-09-21T22:46:49.980Z,9.00
2022-09-21T22:49:17.804Z,11.00
2022-09-21T22:51:45.478Z,12.00
2022-09-21T22:54:13.081Z,9.00
2022-09-21T22:56:40.687Z,9.00
2022-09-21T22:59:09.634Z,17.33
2022-09-21T23:01:40.364Z,9.50
2022-09-21T23:04:13.881Z,10.20
2022-09-21T23:06:45.382Z,8.75
2022-09-21T23:09:19.872Z,9.50
2022-09-21T23:11:53.718Z,10.50
2022-09-21T23:14:23.562Z,10.00
2022-09-21T23:16:53.042Z,17.67
2022-09-21T23:19:20.768Z,14.50
2022-09-21T23:21:51.138Z,20.00
2022-09-21T23:24:20.202Z,18.00
2022-09-21T23:26:51.742Z,20.33
2022-09-21T23:29:20.483Z,16.00
2022-09-21T23:31:49.061Z,16.00
2022-09-21T23:34:17.522Z,14.00
2022-09-21T23:36:46.272Z,22.50
2022-09-21T23:39:16.018Z,16.00
2022-09-21T23:41:44.589Z,15.50
2022-09-21T23:44:12.364Z,17.00
2022-09-21T23:46:41.851Z,16.00
2022-09-21T23:49:10.698Z,10.50
2022-09-21T23:51:39.828Z,11.33
2022-09-21T23:54:08.211Z,12.00
2022-09-21T23:56:36.293Z,10.00
2022-09-21T23:59:04.090Z,12.00
